Misratah, Libya
Current Conditions -  °F | °C
As of 8:55 AM on Friday 24 Oct 2014 (Local Time) from HLLM Reporting Station
Broken Clouds Broken Clouds  
Wind Chill: 68°   Ceiling: 2000
Heat Index: 68°   Visibility: 5mi
Dew Point: 41°   Wind: 13mph
Humidity: 37%   Direction: 260°W
Pressure: 29.91"   Gusts: NA
Location:  32.38°N, 15.09°E
Report Text: HLLM 240555Z 26011KT 8000 BKN020 SCT080 20/05 Q1013
Loading
Personal Weather Stations






























Interactive Weather Map New forecast layout! Learn more

10-Day Weather Forecast

Advertisements
Track Severe Weather on mobile